sensor_id;sensor_type;location;lat;lon;timestamp;pressure;altitude;pressure_sealevel;temperature;humidity
76052;BME280;64751;48.708;9.710;2022-11-15T00:01:17;97441.16;;;8.81;79.30
76052;BME280;64751;48.708;9.710;2022-11-15T00:04:04;97436.69;;;8.76;78.70
76052;BME280;64751;48.708;9.710;2022-11-15T00:06:53;97436.97;;;8.75;80.19
76052;BME280;64751;48.708;9.710;2022-11-15T00:09:39;97430.41;;;8.72;79.32
76052;BME280;64751;48.708;9.710;2022-11-15T00:12:27;97436.75;;;8.71;79.58
76052;BME280;64751;48.708;9.710;2022-11-15T00:15:13;97431.19;;;8.68;80.32
76052;BME280;64751;48.708;9.710;2022-11-15T00:18:00;97430.94;;;8.64;81.33
76052;BME280;64751;48.708;9.710;2022-11-15T00:20:46;97412.28;;;8.46;80.70
76052;BME280;64751;48.708;9.710;2022-11-15T00:23:35;97431.22;;;8.53;81.54
76052;BME280;64751;48.708;9.710;2022-11-15T00:26:22;97425.16;;;8.47;82.35
76052;BME280;64751;48.708;9.710;2022-11-15T00:29:10;97425.44;;;8.46;82.44
76052;BME280;64751;48.708;9.710;2022-11-15T00:31:57;97421.50;;;8.43;82.21
76052;BME280;64751;48.708;9.710;2022-11-15T00:34:44;97426.00;;;8.43;81.66
76052;BME280;64751;48.708;9.710;2022-11-15T00:37:32;97422.56;;;8.42;82.72
76052;BME280;64751;48.708;9.710;2022-11-15T00:40:20;97415.47;;;8.38;82.56
76052;BME280;64751;48.708;9.710;2022-11-15T00:43:06;97414.94;;;8.36;82.42
76052;BME280;64751;48.708;9.710;2022-11-15T00:45:54;97413.09;;;8.31;83.74
76052;BME280;64751;48.708;9.710;2022-11-15T00:48:40;97411.00;;;8.28;83.42
76052;BME280;64751;48.708;9.710;2022-11-15T00:51:27;97417.56;;;8.26;84.20
76052;BME280;64751;48.708;9.710;2022-11-15T00:54:14;97408.31;;;8.23;83.88
76052;BME280;64751;48.708;9.710;2022-11-15T00:57:02;97403.63;;;8.20;83.76
76052;BME280;64751;48.708;9.710;2022-11-15T00:59:49;97401.22;;;8.19;83.73
76052;BME280;64751;48.708;9.710;2022-11-15T01:02:36;97400.97;;;8.15;84.36
76052;BME280;64751;48.708;9.710;2022-11-15T01:05:22;97399.13;;;8.11;84.98
76052;BME280;64751;48.708;9.710;2022-11-15T01:08:12;97390.22;;;8.07;85.04
76052;BME280;64751;48.708;9.710;2022-11-15T01:11:01;97394.16;;;8.04;84.50
76052;BME280;64751;48.708;9.710;2022-11-15T01:13:49;97390.47;;;8.00;84.63
76052;BME280;64751;48.708;9.710;2022-11-15T01:16:35;97389.69;;;7.99;85.19
76052;BME280;64751;48.708;9.710;2022-11-15T01:19:21;97392.31;;;7.99;85.17
76052;BME280;64751;48.708;9.710;2022-11-15T01:22:08;97379.41;;;7.98;84.89
76052;BME280;64751;48.708;9.710;2022-11-15T01:24:53;97382.06;;;7.93;84.63
76052;BME280;64751;48.708;9.710;2022-11-15T01:27:40;97376.25;;;7.86;84.23
76052;BME280;64751;48.708;9.710;2022-11-15T01:30:27;97377.84;;;7.82;84.72
76052;BME280;64751;48.708;9.710;2022-11-15T01:33:14;97355.47;;;7.69;84.55
76052;BME280;64751;48.708;9.710;2022-11-15T01:36:03;97361.28;;;7.76;85.16
76052;BME280;64751;48.708;9.710;2022-11-15T01:38:53;97370.97;;;7.76;84.34
76052;BME280;64751;48.708;9.710;2022-11-15T01:41:40;97365.47;;;7.72;84.29
76052;BME280;64751;48.708;9.710;2022-11-15T01:44:40;97362.06;;;7.72;84.05
76052;BME280;64751;48.708;9.710;2022-11-15T01:47:30;97360.50;;;7.71;83.12
76052;BME280;64751;48.708;9.710;2022-11-15T01:50:20;97357.06;;;7.65;82.97
76052;BME280;64751;48.708;9.710;2022-11-15T01:53:07;97359.41;;;7.57;83.34
76052;BME280;64751;48.708;9.710;2022-11-15T01:55:55;97354.66;;;7.54;84.09
76052;BME280;64751;48.708;9.710;2022-11-15T01:58:43;97353.09;;;7.48;83.40
76052;BME280;64751;48.708;9.710;2022-11-15T02:01:30;97357.53;;;7.42;83.49
76052;BME280;64751;48.708;9.710;2022-11-15T02:04:24;97358.84;;;7.35;83.53
76052;BME280;64751;48.708;9.710;2022-11-15T02:07:15;97347.28;;;7.30;83.65
76052;BME280;64751;48.708;9.710;2022-11-15T02:10:06;97340.97;;;7.26;83.57
76052;BME280;64751;48.708;9.710;2022-11-15T02:12:53;97345.94;;;7.18;83.76
76052;BME280;64751;48.708;9.710;2022-11-15T02:15:47;97343.56;;;7.11;83.18
76052;BME280;64751;48.708;9.710;2022-11-15T02:18:43;97339.06;;;7.02;83.51
76052;BME280;64751;48.708;9.710;2022-11-15T02:21:37;97338.81;;;6.98;83.92
76052;BME280;64751;48.708;9.710;2022-11-15T02:24:49;97331.44;;;6.95;84.06
76052;BME280;64751;48.708;9.710;2022-11-15T02:28:18;97334.31;;;6.94;84.26
76052;BME280;64751;48.708;9.710;2022-11-15T02:31:23;97331.97;;;6.92;83.82
76052;BME280;64751;48.708;9.710;2022-11-15T02:34:18;97321.44;;;6.87;83.46
76052;BME280;64751;48.708;9.710;2022-11-15T02:37:14;97330.88;;;6.83;83.44
76052;BME280;64751;48.708;9.710;2022-11-15T02:40:07;97322.72;;;6.80;83.24
76052;BME280;64751;48.708;9.710;2022-11-15T02:43:01;97321.91;;;6.74;83.42
76052;BME280;64751;48.708;9.710;2022-11-15T02:46:14;97314.56;;;6.71;83.28
76052;BME280;64751;48.708;9.710;2022-11-15T02:49:04;97320.31;;;6.63;83.11
76052;BME280;64751;48.708;9.710;2022-11-15T02:51:51;97306.09;;;6.54;83.31
76052;BME280;64751;48.708;9.710;2022-11-15T02:54:37;97314.72;;;6.49;83.77
76052;BME280;64751;48.708;9.710;2022-11-15T02:57:35;97308.66;;;6.44;82.77
76052;BME280;64751;48.708;9.710;2022-11-15T03:00:25;97307.88;;;6.38;83.36
76052;BME280;64751;48.708;9.710;2022-11-15T03:03:37;97298.91;;;6.34;82.84
76052;BME280;64751;48.708;9.710;2022-11-15T03:06:32;97293.88;;;6.28;83.06
76052;BME280;64751;48.708;9.710;2022-11-15T03:09:28;97290.97;;;6.19;83.51
76052;BME280;64751;48.708;9.710;2022-11-15T03:12:24;97292.03;;;6.18;83.36
76052;BME280;64751;48.708;9.710;2022-11-15T03:15:18;97295.94;;;6.16;83.36
76052;BME280;64751;48.708;9.710;2022-11-15T03:18:10;97297.22;;;6.13;83.21
76052;BME280;64751;48.708;9.710;2022-11-15T03:21:03;97295.38;;;6.09;82.92
76052;BME280;64751;48.708;9.710;2022-11-15T03:23:51;97293.25;;;6.06;83.32
76052;BME280;64751;48.708;9.710;2022-11-15T03:26:39;97295.09;;;6.05;83.40
76052;BME280;64751;48.708;9.710;2022-11-15T03:29:31;97289.56;;;6.02;83.73
76052;BME280;64751;48.708;9.710;2022-11-15T03:32:22;97287.50;;;6.09;83.96
76052;BME280;64751;48.708;9.710;2022-11-15T03:35:10;97285.69;;;6.09;84.00
76052;BME280;64751;48.708;9.710;2022-11-15T03:38:02;97291.47;;;6.11;83.57
76052;BME280;64751;48.708;9.710;2022-11-15T03:40:55;97279.69;;;6.14;84.25
76052;BME280;64751;48.708;9.710;2022-11-15T03:43:47;97283.63;;;6.16;83.66
76052;BME280;64751;48.708;9.710;2022-11-15T03:46:39;97271.28;;;6.17;84.54
76052;BME280;64751;48.708;9.710;2022-11-15T03:49:31;97275.22;;;6.19;83.89
76052;BME280;64751;48.708;9.710;2022-11-15T03:52:19;97272.13;;;6.22;84.06
76052;BME280;64751;48.708;9.710;2022-11-15T03:55:10;97263.97;;;6.24;84.67
76052;BME280;64751;48.708;9.710;2022-11-15T03:57:59;97273.97;;;6.27;84.59
76052;BME280;64751;48.708;9.710;2022-11-15T04:00:45;97267.97;;;6.31;84.77
76052;BME280;64751;48.708;9.710;2022-11-15T04:03:31;97265.06;;;6.33;84.22
76052;BME280;64751;48.708;9.710;2022-11-15T04:06:16;97252.50;;;6.30;84.05
76052;BME280;64751;48.708;9.710;2022-11-15T04:09:03;97256.66;;;6.26;83.36
76052;BME280;64751;48.708;9.710;2022-11-15T04:11:50;97229.88;;;6.14;83.65
76052;BME280;64751;48.708;9.710;2022-11-15T04:14:36;97249.81;;;6.20;83.56
76052;BME280;64751;48.708;9.710;2022-11-15T04:17:43;97242.47;;;6.22;84.32
76052;BME280;64751;48.708;9.710;2022-11-15T04:20:31;97240.91;;;6.26;84.68
76052;BME280;64751;48.708;9.710;2022-11-15T04:23:35;97242.78;;;6.30;85.09
76052;BME280;64751;48.708;9.710;2022-11-15T04:26:38;97235.69;;;6.31;84.93
76052;BME280;64751;48.708;9.710;2022-11-15T04:29:26;97242.81;;;6.35;85.09
76052;BME280;64751;48.708;9.710;2022-11-15T04:32:21;97236.53;;;6.36;85.08
76052;BME280;64751;48.708;9.710;2022-11-15T04:35:08;97240.44;;;6.39;84.93
76052;BME280;64751;48.708;9.710;2022-11-15T04:37:54;97233.13;;;6.41;84.77
76052;BME280;64751;48.708;9.710;2022-11-15T04:40:40;97237.31;;;6.42;84.81
76052;BME280;64751;48.708;9.710;2022-11-15T04:43:26;97243.09;;;6.44;85.05
76052;BME280;64751;48.708;9.710;2022-11-15T04:46:13;97233.91;;;6.41;84.96
76052;BME280;64751;48.708;9.710;2022-11-15T04:49:00;97239.69;;;6.43;85.14
76052;BME280;64751;48.708;9.710;2022-11-15T04:51:46;97224.22;;;6.47;85.23
76052;BME280;64751;48.708;9.710;2022-11-15T04:54:32;97231.31;;;6.51;85.30
76052;BME280;64751;48.708;9.710;2022-11-15T04:57:18;97239.47;;;6.55;85.57
76052;BME280;64751;48.708;9.710;2022-11-15T05:00:07;97247.88;;;6.62;85.81
76052;BME280;64751;48.708;9.710;2022-11-15T05:02:55;97243.97;;;6.65;85.59
76052;BME280;64751;48.708;9.710;2022-11-15T05:05:59;97251.06;;;6.69;85.26
76052;BME280;64751;48.708;9.710;2022-11-15T05:08:45;97242.41;;;6.74;85.11
76052;BME280;64751;48.708;9.710;2022-11-15T05:11:31;97243.97;;;6.70;85.07
76052;BME280;64751;48.708;9.710;2022-11-15T05:14:17;97237.94;;;6.69;85.31
76052;BME280;64751;48.708;9.710;2022-11-15T05:17:03;97238.19;;;6.68;85.97
76052;BME280;64751;48.708;9.710;2022-11-15T05:19:51;97236.34;;;6.68;85.80
76052;BME280;64751;48.708;9.710;2022-11-15T05:22:37;97237.66;;;6.71;86.20
76052;BME280;64751;48.708;9.710;2022-11-15T05:25:23;97236.38;;;6.73;86.04
76052;BME280;64751;48.708;9.710;2022-11-15T05:28:10;97233.50;;;6.80;85.55
76052;BME280;64751;48.708;9.710;2022-11-15T05:31:00;97231.41;;;6.87;85.91
76052;BME280;64751;48.708;9.710;2022-11-15T05:33:46;97236.94;;;6.90;85.06
76052;BME280;64751;48.708;9.710;2022-11-15T05:36:36;97229.59;;;6.92;85.65
76052;BME280;64751;48.708;9.710;2022-11-15T05:39:23;97206.75;;;6.83;85.09
76052;BME280;64751;48.708;9.710;2022-11-15T05:42:11;97214.88;;;6.91;85.58
76052;BME280;64751;48.708;9.710;2022-11-15T05:44:59;97228.53;;;6.93;85.53
76052;BME280;64751;48.708;9.710;2022-11-15T05:47:48;97213.84;;;6.87;85.21
76052;BME280;64751;48.708;9.710;2022-11-15T05:50:36;97221.19;;;6.90;86.51
76052;BME280;64751;48.708;9.710;2022-11-15T05:53:25;97213.03;;;6.87;85.38
76052;BME280;64751;48.708;9.710;2022-11-15T05:56:12;97207.78;;;6.82;85.60
76052;BME280;64751;48.708;9.710;2022-11-15T05:58:59;97209.63;;;6.76;85.17
76052;BME280;64751;48.708;9.710;2022-11-15T06:01:45;97216.16;;;6.74;85.04
76052;BME280;64751;48.708;9.710;2022-11-15T06:04:31;97214.84;;;6.71;85.54
76052;BME280;64751;48.708;9.710;2022-11-15T06:07:17;97212.22;;;6.71;85.35
76052;BME280;64751;48.708;9.710;2022-11-15T06:10:05;97218.25;;;6.72;86.10
76052;BME280;64751;48.708;9.710;2022-11-15T06:12:56;97215.88;;;6.65;85.04
76052;BME280;64751;48.708;9.710;2022-11-15T06:15:42;97209.03;;;6.59;84.75
76052;BME280;64751;48.708;9.710;2022-11-15T06:18:31;97212.16;;;6.51;84.61
76052;BME280;64751;48.708;9.710;2022-11-15T06:21:18;97216.38;;;6.47;84.97
76052;BME280;64751;48.708;9.710;2022-11-15T06:24:05;97211.63;;;6.44;84.87
76052;BME280;64751;48.708;9.710;2022-11-15T06:26:53;97212.16;;;6.41;84.95
76052;BME280;64751;48.708;9.710;2022-11-15T06:29:39;97217.91;;;6.38;85.26
76052;BME280;64751;48.708;9.710;2022-11-15T06:32:25;97210.53;;;6.30;83.86
76052;BME280;64751;48.708;9.710;2022-11-15T06:35:11;97216.25;;;6.22;84.12
76052;BME280;64751;48.708;9.710;2022-11-15T06:38:02;97217.56;;;6.19;84.05
76052;BME280;64751;48.708;9.710;2022-11-15T06:40:49;97223.56;;;6.15;84.14
76052;BME280;64751;48.708;9.710;2022-11-15T06:43:36;97219.09;;;6.10;84.87
76052;BME280;64751;48.708;9.710;2022-11-15T06:46:22;97226.94;;;6.05;83.99
76052;BME280;64751;48.708;9.710;2022-11-15T06:49:10;97225.63;;;6.03;84.25
76052;BME280;64751;48.708;9.710;2022-11-15T06:51:56;97230.59;;;6.04;84.62
76052;BME280;64751;48.708;9.710;2022-11-15T06:54:42;97221.94;;;6.04;84.25
76052;BME280;64751;48.708;9.710;2022-11-15T06:57:28;97226.66;;;6.02;84.12
76052;BME280;64751;48.708;9.710;2022-11-15T07:00:18;97230.56;;;5.99;83.16
76052;BME280;64751;48.708;9.710;2022-11-15T07:03:04;97229.50;;;5.95;82.72
76052;BME280;64751;48.708;9.710;2022-11-15T07:05:51;97227.66;;;5.91;82.94
76052;BME280;64751;48.708;9.710;2022-11-15T07:08:39;97220.03;;;5.89;83.21
76052;BME280;64751;48.708;9.710;2022-11-15T07:11:26;97225.28;;;5.94;84.23
76052;BME280;64751;48.708;9.710;2022-11-15T07:14:12;97223.25;;;6.01;84.63
76052;BME280;64751;48.708;9.710;2022-11-15T07:16:59;97229.56;;;6.05;84.46
76052;BME280;64751;48.708;9.710;2022-11-15T07:19:48;97226.38;;;6.03;83.67
76052;BME280;64751;48.708;9.710;2022-11-15T07:22:34;97228.25;;;6.03;83.52
76052;BME280;64751;48.708;9.710;2022-11-15T07:25:20;97211.47;;;6.04;83.89
76052;BME280;64751;48.708;9.710;2022-11-15T07:28:09;97206.75;;;6.06;83.95
76052;BME280;64751;48.708;9.710;2022-11-15T07:30:55;97205.97;;;6.10;83.99
76052;BME280;64751;48.708;9.710;2022-11-15T07:33:42;97212.56;;;6.13;84.16
76052;BME280;64751;48.708;9.710;2022-11-15T07:36:28;97209.44;;;6.16;84.19
76052;BME280;64751;48.708;9.710;2022-11-15T07:39:14;97204.19;;;6.16;84.12
76052;BME280;64751;48.708;9.710;2022-11-15T07:42:00;97201.81;;;6.19;84.66
76052;BME280;64751;48.708;9.710;2022-11-15T07:45:04;97198.97;;;6.26;84.53
76052;BME280;64751;48.708;9.710;2022-11-15T07:47:50;97201.09;;;6.34;84.70
76052;BME280;64751;48.708;9.710;2022-11-15T07:50:42;97185.38;;;6.44;84.65
76052;BME280;64751;48.708;9.710;2022-11-15T07:53:28;97186.75;;;6.56;84.27
76052;BME280;64751;48.708;9.710;2022-11-15T07:56:14;97179.19;;;6.70;84.33
76052;BME280;64751;48.708;9.710;2022-11-15T07:59:00;97172.09;;;6.81;84.00
76052;BME280;64751;48.708;9.710;2022-11-15T08:01:46;97176.03;;;6.88;84.40
76052;BME280;64751;48.708;9.710;2022-11-15T08:04:32;97182.59;;;6.96;83.72
76052;BME280;64751;48.708;9.710;2022-11-15T08:07:20;97192.56;;;7.04;82.96
76052;BME280;64751;48.708;9.710;2022-11-15T08:10:07;97186.03;;;7.11;82.95
76052;BME280;64751;48.708;9.710;2022-11-15T08:12:57;97176.06;;;7.18;82.45
76052;BME280;64751;48.708;9.710;2022-11-15T08:15:44;97180.50;;;7.28;82.44
76052;BME280;64751;48.708;9.710;2022-11-15T08:18:30;97180.50;;;7.38;81.89
76052;BME280;64751;48.708;9.710;2022-11-15T08:21:19;97173.13;;;7.45;81.55
76052;BME280;64751;48.708;9.710;2022-11-15T08:24:08;97161.84;;;7.55;81.68
76052;BME280;64751;48.708;9.710;2022-11-15T08:26:55;97161.28;;;7.63;81.84
76052;BME280;64751;48.708;9.710;2022-11-15T08:29:42;97163.09;;;7.72;82.04
76052;BME280;64751;48.708;9.710;2022-11-15T08:32:29;97175.44;;;7.82;80.60
76052;BME280;64751;48.708;9.710;2022-11-15T08:35:16;97168.56;;;7.91;80.63
76052;BME280;64751;48.708;9.710;2022-11-15T08:38:03;97160.41;;;7.97;80.66
76052;BME280;64751;48.708;9.710;2022-11-15T08:40:50;97148.81;;;8.03;80.27
76052;BME280;64751;48.708;9.710;2022-11-15T08:43:36;97139.53;;;8.16;80.81
76052;BME280;64751;48.708;9.710;2022-11-15T08:46:22;97138.72;;;8.26;79.71
76052;BME280;64751;48.708;9.710;2022-11-15T08:49:09;97143.97;;;8.36;80.29
76052;BME280;64751;48.708;9.710;2022-11-15T08:51:54;97143.88;;;8.51;80.44
76052;BME280;64751;48.708;9.710;2022-11-15T08:54:40;97143.75;;;8.66;81.08
76052;BME280;64751;48.708;9.710;2022-11-15T08:57:29;97133.94;;;8.76;80.27
76052;BME280;64751;48.708;9.710;2022-11-15T09:00:17;97136.16;;;8.98;77.15
76052;BME280;64751;48.708;9.710;2022-11-15T09:03:04;97124.19;;;9.11;74.11
76052;BME280;64751;48.708;9.710;2022-11-15T09:05:55;97123.47;;;9.34;74.92
76052;BME280;64751;48.708;9.710;2022-11-15T09:08:41;97129.88;;;9.52;74.13
76052;BME280;64751;48.708;9.710;2022-11-15T09:11:27;97126.03;;;9.68;72.69
76052;BME280;64751;48.708;9.710;2022-11-15T09:14:14;97119.25;;;9.85;71.30
76052;BME280;64751;48.708;9.710;2022-11-15T09:17:01;97118.56;;;9.98;71.85
76052;BME280;64751;48.708;9.710;2022-11-15T09:19:47;97116.53;;;10.14;70.97
76052;BME280;64751;48.708;9.710;2022-11-15T09:22:34;97122.47;;;10.25;71.09
76052;BME280;64751;48.708;9.710;2022-11-15T09:25:21;97116.88;;;10.31;70.73
76052;BME280;64751;48.708;9.710;2022-11-15T09:28:07;97112.78;;;10.39;69.85
76052;BME280;64751;48.708;9.710;2022-11-15T09:30:57;97108.72;;;10.46;71.58
76052;BME280;64751;48.708;9.710;2022-11-15T09:33:44;97103.88;;;10.53;70.07
76052;BME280;64751;48.708;9.710;2022-11-15T09:36:30;97105.84;;;10.61;69.71
76052;BME280;64751;48.708;9.710;2022-11-15T09:39:16;97118.41;;;10.69;69.11
76052;BME280;64751;48.708;9.710;2022-11-15T09:42:13;97112.00;;;10.75;68.53
76052;BME280;64751;48.708;9.710;2022-11-15T09:45:15;97094.06;;;10.72;68.66
76052;BME280;64751;48.708;9.710;2022-11-15T09:51:30;97095.09;;;10.90;68.27
76052;BME280;64751;48.708;9.710;2022-11-15T09:54:05;97095.53;;;10.97;67.48
76052;BME280;64751;48.708;9.710;2022-11-15T09:56:38;97091.16;;;11.06;68.45
76052;BME280;64751;48.708;9.710;2022-11-15T09:59:24;97088.25;;;11.21;69.05
76052;BME280;64751;48.708;9.710;2022-11-15T10:02:03;97085.72;;;11.30;68.36
76052;BME280;64751;48.708;9.710;2022-11-15T10:04:32;97077.91;;;11.38;67.22
76052;BME280;64751;48.708;9.710;2022-11-15T10:07:05;97074.56;;;11.46;66.20
76052;BME280;64751;48.708;9.710;2022-11-15T10:09:37;97075.84;;;11.49;66.46
76052;BME280;64751;48.708;9.710;2022-11-15T10:12:07;97068.31;;;11.56;67.71
76052;BME280;64751;48.708;9.710;2022-11-15T10:14:36;97065.84;;;11.59;66.42
76052;BME280;64751;48.708;9.710;2022-11-15T10:17:16;97060.47;;;11.64;65.13
76052;BME280;64751;48.708;9.710;2022-11-15T10:19:53;97068.03;;;11.71;65.93
76052;BME280;64751;48.708;9.710;2022-11-15T10:22:27;97067.75;;;11.73;67.96
76052;BME280;64751;48.708;9.710;2022-11-15T10:25:18;97069.22;;;11.79;68.48
76052;BME280;64751;48.708;9.710;2022-11-15T10:27:48;97075.50;;;11.83;66.66
76052;BME280;64751;48.708;9.710;2022-11-15T10:30:18;97067.56;;;11.83;66.17
76052;BME280;64751;48.708;9.710;2022-11-15T10:32:47;97068.03;;;11.85;66.15
76052;BME280;64751;48.708;9.710;2022-11-15T10:35:17;97060.91;;;11.85;64.77
76052;BME280;64751;48.708;9.710;2022-11-15T10:37:47;97063.81;;;11.84;65.90
76052;BME280;64751;48.708;9.710;2022-11-15T10:40:18;97054.72;;;11.90;65.23
76052;BME280;64751;48.708;9.710;2022-11-15T10:42:46;97049.31;;;11.95;66.44
76052;BME280;64751;48.708;9.710;2022-11-15T10:45:25;97051.06;;;11.99;65.99
76052;BME280;64751;48.708;9.710;2022-11-15T10:47:54;97049.09;;;12.05;64.85
76052;BME280;64751;48.708;9.710;2022-11-15T10:50:43;97039.47;;;12.09;63.73
76052;BME280;64751;48.708;9.710;2022-11-15T10:53:18;97043.09;;;12.13;65.12
76052;BME280;64751;48.708;9.710;2022-11-15T10:55:50;97036.63;;;12.19;64.25
76052;BME280;64751;48.708;9.710;2022-11-15T10:58:29;97034.34;;;12.26;63.23
76052;BME280;64751;48.708;9.710;2022-11-15T11:01:08;97032.84;;;12.33;63.26
76052;BME280;64751;48.708;9.710;2022-11-15T11:03:38;97030.25;;;12.42;61.91
76052;BME280;64751;48.708;9.710;2022-11-15T11:06:09;97027.97;;;12.49;60.64
76052;BME280;64751;48.708;9.710;2022-11-15T11:08:40;97020.41;;;12.56;60.03
76052;BME280;64751;48.708;9.710;2022-11-15T11:11:08;97008.09;;;12.60;59.59
76052;BME280;64751;48.708;9.710;2022-11-15T11:13:37;97009.25;;;12.68;59.26
76052;BME280;64751;48.708;9.710;2022-11-15T11:16:21;97017.56;;;12.75;60.50
76052;BME280;64751;48.708;9.710;2022-11-15T11:18:58;97017.25;;;12.76;59.94
76052;BME280;64751;48.708;9.710;2022-11-15T11:21:38;97010.41;;;12.75;59.96
76052;BME280;64751;48.708;9.710;2022-11-15T11:24:16;97011.47;;;12.74;58.92
76052;BME280;64751;48.708;9.710;2022-11-15T11:26:50;97009.41;;;12.71;59.03
76052;BME280;64751;48.708;9.710;2022-11-15T11:29:31;97006.28;;;12.69;58.26
76052;BME280;64751;48.708;9.710;2022-11-15T11:32:20;97012.22;;;12.66;59.26
76052;BME280;64751;48.708;9.710;2022-11-15T11:34:56;97002.34;;;12.58;59.75
76052;BME280;64751;48.708;9.710;2022-11-15T11:37:31;97006.44;;;12.64;57.73
76052;BME280;64751;48.708;9.710;2022-11-15T11:40:14;96997.88;;;12.67;55.09
76052;BME280;64751;48.708;9.710;2022-11-15T11:42:50;97001.47;;;12.71;54.72
76052;BME280;64751;48.708;9.710;2022-11-15T11:45:31;97000.72;;;12.71;54.35
76052;BME280;64751;48.708;9.710;2022-11-15T11:48:12;97003.66;;;12.69;54.25
76052;BME280;64751;48.708;9.710;2022-11-15T11:50:41;97003.47;;;12.66;55.52
76052;BME280;64751;48.708;9.710;2022-11-15T11:53:12;97000.03;;;12.65;53.94
76052;BME280;64751;48.708;9.710;2022-11-15T11:55:45;96997.38;;;12.65;53.60
76052;BME280;64751;48.708;9.710;2022-11-15T11:58:18;96993.19;;;12.64;53.87
76052;BME280;64751;48.708;9.710;2022-11-15T12:00:50;96995.69;;;12.69;52.52
76052;BME280;64751;48.708;9.710;2022-11-15T12:03:25;96995.09;;;12.72;52.56
76052;BME280;64751;48.708;9.710;2022-11-15T12:05:59;96989.97;;;12.76;54.06
76052;BME280;64751;48.708;9.710;2022-11-15T12:08:32;96990.63;;;12.81;52.87
76052;BME280;64751;48.708;9.710;2022-11-15T12:11:10;96981.31;;;12.84;51.61
76052;BME280;64751;48.708;9.710;2022-11-15T12:13:40;96980.38;;;12.88;53.00
76052;BME280;64751;48.708;9.710;2022-11-15T12:16:13;96970.38;;;12.85;52.81
76052;BME280;64751;48.708;9.710;2022-11-15T12:18:47;96972.78;;;12.95;52.27
76052;BME280;64751;48.708;9.710;2022-11-15T12:21:19;96970.47;;;13.02;55.51
76052;BME280;64751;48.708;9.710;2022-11-15T12:23:53;96965.16;;;13.02;53.33
76052;BME280;64751;48.708;9.710;2022-11-15T12:26:26;96964.59;;;13.05;52.88
76052;BME280;64751;48.708;9.710;2022-11-15T12:28:58;96953.66;;;13.07;53.18
76052;BME280;64751;48.708;9.710;2022-11-15T12:31:32;96949.63;;;13.09;53.45
76052;BME280;64751;48.708;9.710;2022-11-15T12:34:12;96944.19;;;13.15;55.31
76052;BME280;64751;48.708;9.710;2022-11-15T12:36:42;96945.25;;;13.14;55.39
76052;BME280;64751;48.708;9.710;2022-11-15T12:39:11;96941.84;;;13.13;54.06
76052;BME280;64751;48.708;9.710;2022-11-15T12:41:41;96943.13;;;13.16;53.67
76052;BME280;64751;48.708;9.710;2022-11-15T12:44:11;96938.09;;;13.14;54.53
76052;BME280;64751;48.708;9.710;2022-11-15T12:46:59;96939.22;;;13.13;53.01
76052;BME280;64751;48.708;9.710;2022-11-15T12:49:50;96934.97;;;13.12;52.52
76052;BME280;64751;48.708;9.710;2022-11-15T12:52:19;96934.19;;;13.12;52.71
76052;BME280;64751;48.708;9.710;2022-11-15T12:57:51;96937.16;;;13.10;53.95
76052;BME280;64751;48.708;9.710;2022-11-15T13:00:43;96931.38;;;13.08;53.04
76052;BME280;64751;48.708;9.710;2022-11-15T13:03:23;96931.19;;;13.04;53.50
76052;BME280;64751;48.708;9.710;2022-11-15T13:05:56;96929.34;;;13.05;54.94
76052;BME280;64751;48.708;9.710;2022-11-15T13:08:56;96933.25;;;13.07;54.02
76052;BME280;64751;48.708;9.710;2022-11-15T13:11:50;96929.06;;;13.06;55.92
76052;BME280;64751;48.708;9.710;2022-11-15T13:14:42;96920.31;;;13.06;58.31
76052;BME280;64751;48.708;9.710;2022-11-15T13:17:20;96917.94;;;13.04;56.36
76052;BME280;64751;48.708;9.710;2022-11-15T13:19:55;96916.88;;;13.05;55.98
76052;BME280;64751;48.708;9.710;2022-11-15T13:22:26;96903.25;;;12.98;56.06
76052;BME280;64751;48.708;9.710;2022-11-15T13:25:16;96920.59;;;13.04;56.47
76052;BME280;64751;48.708;9.710;2022-11-15T13:27:47;96910.28;;;13.03;56.15
76052;BME280;64751;48.708;9.710;2022-11-15T13:30:21;96907.94;;;13.01;56.50
76052;BME280;64751;48.708;9.710;2022-11-15T13:32:49;96907.63;;;13.03;56.09
76052;BME280;64751;48.708;9.710;2022-11-15T13:35:20;96901.38;;;12.99;56.55
76052;BME280;64751;48.708;9.710;2022-11-15T13:37:49;96894.81;;;12.96;56.74
76052;BME280;64751;48.708;9.710;2022-11-15T13:40:25;96891.53;;;12.91;57.10
76052;BME280;64751;48.708;9.710;2022-11-15T13:42:55;96895.41;;;12.93;56.56
76052;BME280;64751;48.708;9.710;2022-11-15T13:45:25;96886.06;;;12.87;56.71
76052;BME280;64751;48.708;9.710;2022-11-15T13:47:57;96885.13;;;12.92;56.71
76052;BME280;64751;48.708;9.710;2022-11-15T13:50:28;96881.53;;;12.88;56.66
76052;BME280;64751;48.708;9.710;2022-11-15T13:53:01;96869.38;;;12.87;59.42
76052;BME280;64751;48.708;9.710;2022-11-15T13:55:30;96875.00;;;12.85;58.04
76052;BME280;64751;48.708;9.710;2022-11-15T13:58:00;96873.72;;;12.83;57.71
76052;BME280;64751;48.708;9.710;2022-11-15T14:00:37;96866.69;;;12.78;59.12
76052;BME280;64751;48.708;9.710;2022-11-15T14:03:12;96860.44;;;12.74;60.53
76052;BME280;64751;48.708;9.710;2022-11-15T14:05:43;96857.34;;;12.72;61.04
76052;BME280;64751;48.708;9.710;2022-11-15T14:08:22;96861.69;;;12.68;62.23
76052;BME280;64751;48.708;9.710;2022-11-15T14:11:06;96852.00;;;12.64;62.39
76052;BME280;64751;48.708;9.710;2022-11-15T14:13:35;96849.94;;;12.61;62.41
76052;BME280;64751;48.708;9.710;2022-11-15T14:16:15;96846.38;;;12.57;64.55
76052;BME280;64751;48.708;9.710;2022-11-15T14:18:45;96836.69;;;12.52;66.16
76052;BME280;64751;48.708;9.710;2022-11-15T14:21:13;96834.63;;;12.49;66.87
76052;BME280;64751;48.708;9.710;2022-11-15T14:23:41;96844.75;;;12.47;67.45
76052;BME280;64751;48.708;9.710;2022-11-15T14:26:26;96831.63;;;12.42;70.15
76052;BME280;64751;48.708;9.710;2022-11-15T14:28:54;96835.06;;;12.43;72.36
76052;BME280;64751;48.708;9.710;2022-11-15T14:31:23;96830.41;;;12.40;72.54
76052;BME280;64751;48.708;9.710;2022-11-15T14:33:51;96815.72;;;12.33;70.68
76052;BME280;64751;48.708;9.710;2022-11-15T14:36:20;96817.88;;;12.31;67.50
76052;BME280;64751;48.708;9.710;2022-11-15T14:38:48;96811.34;;;12.29;67.74
76052;BME280;64751;48.708;9.710;2022-11-15T14:41:20;96799.13;;;12.19;68.29
76052;BME280;64751;48.708;9.710;2022-11-15T14:43:48;96781.19;;;12.08;70.39